Cary, North Carolina
Current Conditions -  °F | °C
As of 8:51 PM on Tuesday 21 Oct 2014 (Local Time) from KRDU Reporting Station
Broken Clouds Broken Clouds  
Wind Chill: 63°   Ceiling: 8000
Heat Index: 63°   Visibility: 10mi
Dew Point: 39°   Wind: 7mph
Humidity: 41%   Direction: 340°NNW
Pressure: 29.92"   Gusts: 21mph
Location:  35.79°N, 78.78°W
Report Text: KRDU 220051Z 34006G18KT 10SM BKN080 BKN100 17/04 A2992 RMK AO2 SLP130 T01720039
Loading
Personal Weather Stations






























Interactive Weather Map
Tropical Storm Tracking
New forecast layout! Learn more

10-Day Weather Forecast

Advertisements
Track Severe Weather on mobile